createdAt,value
2022-08-19T00:00:23.050Z,9.95
2022-08-19T00:02:50.299Z,10.35
2022-08-19T00:05:21.135Z,10.52
2022-08-19T00:07:51.429Z,9.98
2022-08-19T00:10:21.573Z,9.90
2022-08-19T00:12:52.174Z,9.77
2022-08-19T00:15:21.238Z,9.82
2022-08-19T00:17:53.625Z,9.77
2022-08-19T00:20:25.618Z,9.38
2022-08-19T00:22:52.931Z,9.20
2022-08-19T00:25:30.193Z,9.15
2022-08-19T00:27:57.890Z,9.77
2022-08-19T00:30:24.752Z,10.38
2022-08-19T00:32:51.582Z,9.95
2022-08-19T00:35:19.218Z,10.32
2022-08-19T00:37:52.437Z,9.95
2022-08-19T00:40:20.219Z,10.02
2022-08-19T00:42:47.389Z,10.82
2022-08-19T00:45:21.619Z,10.10
2022-08-19T00:47:48.338Z,9.90
2022-08-19T00:50:19.874Z,10.55
2022-08-19T00:52:51.656Z,10.20
2022-08-19T00:55:28.918Z,10.70
2022-08-19T00:58:01.874Z,10.40
2022-08-19T01:00:30.792Z,10.27
2022-08-19T01:02:57.578Z,11.10
2022-08-19T01:05:30.801Z,10.57
2022-08-19T01:08:03.273Z,10.20
2022-08-19T01:10:37.059Z,11.00
2022-08-19T01:13:04.866Z,10.30
2022-08-19T01:15:36.257Z,11.82
2022-08-19T01:18:11.873Z,9.97
2022-08-19T01:20:42.241Z,10.38
2022-08-19T01:23:09.740Z,10.68
2022-08-19T01:25:45.008Z,10.00
2022-08-19T01:28:40.040Z,10.48
2022-08-19T01:31:26.425Z,10.57
2022-08-19T01:33:58.411Z,10.43
2022-08-19T01:36:53.161Z,10.20
2022-08-19T01:39:25.164Z,10.60
2022-08-19T01:41:55.229Z,11.23
2022-08-19T01:44:24.752Z,11.32
2022-08-19T01:46:52.459Z,11.88
2022-08-19T01:49:21.679Z,12.02
2022-08-19T01:51:53.053Z,12.65
2022-08-19T01:54:27.896Z,12.75
2022-08-19T01:57:04.583Z,12.70
2022-08-19T01:59:32.694Z,11.43
2022-08-19T02:01:59.408Z,12.32
2022-08-19T02:04:28.446Z,12.15
2022-08-19T02:06:57.960Z,12.38
2022-08-19T02:09:24.655Z,13.63
2022-08-19T02:11:51.526Z,12.40
2022-08-19T02:14:20.828Z,12.85
2022-08-19T02:16:47.541Z,13.48
2022-08-19T02:19:16.354Z,14.93
2022-08-19T02:21:45.582Z,14.70
2022-08-19T02:24:13.376Z,16.60
2022-08-19T02:26:43.568Z,17.75
2022-08-19T02:29:13.411Z,16.92
2022-08-19T02:31:41.675Z,20.75
2022-08-19T02:34:10.853Z,23.65
2022-08-19T02:36:37.776Z,23.25
2022-08-19T02:39:14.408Z,21.33
2022-08-19T02:41:43.191Z,25.77
2022-08-19T02:44:22.884Z,25.92
2022-08-19T02:46:57.926Z,25.48
2022-08-19T02:49:35.129Z,26.77
2022-08-19T02:52:02.012Z,24.38
2022-08-19T02:54:29.461Z,26.95
2022-08-19T02:57:00.480Z,26.25
2022-08-19T02:59:30.290Z,25.85
2022-08-19T03:01:57.277Z,26.00
2022-08-19T03:04:27.521Z,26.45
2022-08-19T03:07:10.602Z,25.20
2022-08-19T03:09:38.628Z,26.63
2022-08-19T03:12:08.596Z,25.27
2022-08-19T03:14:39.870Z,26.60
2022-08-19T03:17:07.491Z,25.73
2022-08-19T03:19:41.001Z,24.77
2022-08-19T03:22:10.581Z,23.90
2022-08-19T03:24:38.292Z,23.15
2022-08-19T03:27:06.201Z,25.17
2022-08-19T03:29:43.021Z,25.38
2022-08-19T03:32:10.368Z,25.80
2022-08-19T03:34:57.899Z,23.38
2022-08-19T03:37:24.549Z,23.38
2022-08-19T03:39:52.625Z,25.55
2022-08-19T03:42:38.813Z,24.42
2022-08-19T03:45:13.886Z,22.73
2022-08-19T03:47:40.628Z,26.77
2022-08-19T03:50:07.767Z,25.95
2022-08-19T03:52:35.603Z,27.02
2022-08-19T03:55:05.497Z,27.13
2022-08-19T03:57:34.021Z,26.75
2022-08-19T04:00:12.531Z,27.08
2022-08-19T04:02:42.801Z,26.77
2022-08-19T04:07:54.993Z,24.52
2022-08-19T04:10:21.707Z,27.27
2022-08-19T04:12:50.519Z,26.85
2022-08-19T04:15:20.455Z,27.20
2022-08-19T04:17:47.543Z,27.10
2022-08-19T04:20:18.316Z,25.45
2022-08-19T04:22:47.967Z,24.75
2022-08-19T04:25:19.504Z,26.90
2022-08-19T04:27:47.362Z,26.63
2022-08-19T04:30:15.389Z,25.83
2022-08-19T04:32:44.498Z,25.42
2022-08-19T04:35:17.484Z,25.50
2022-08-19T04:37:46.158Z,25.92
2022-08-19T04:40:31.354Z,25.25
2022-08-19T04:42:58.134Z,23.65
2022-08-19T04:45:24.910Z,24.10
2022-08-19T04:47:58.228Z,24.45
2022-08-19T04:50:27.661Z,24.52
2022-08-19T04:52:56.256Z,23.60
2022-08-19T04:55:22.977Z,23.17
2022-08-19T04:57:49.852Z,24.05
2022-08-19T05:00:16.616Z,23.33
2022-08-19T05:02:43.925Z,23.25
2022-08-19T05:05:10.811Z,21.73
2022-08-19T05:07:37.771Z,22.65
2022-08-19T05:10:06.915Z,22.77
2022-08-19T05:12:33.920Z,21.38
2022-08-19T05:15:01.713Z,21.77
2022-08-19T05:17:32.408Z,23.45
2022-08-19T05:20:20.608Z,21.90
2022-08-19T05:22:48.592Z,22.20
2022-08-19T05:25:19.927Z,21.98
2022-08-19T05:27:46.940Z,23.08
2022-08-19T05:30:14.433Z,23.52
2022-08-19T05:32:41.758Z,26.02
2022-08-19T05:35:09.210Z,24.45
2022-08-19T05:37:35.981Z,25.90
2022-08-19T05:40:04.524Z,25.67
2022-08-19T05:42:31.522Z,25.10
2022-08-19T05:44:58.350Z,25.90
2022-08-19T05:47:25.073Z,24.90
2022-08-19T05:49:51.963Z,24.92
2022-08-19T05:52:19.316Z,26.15
2022-08-19T05:54:51.122Z,25.77
2022-08-19T05:57:19.737Z,25.48
2022-08-19T05:59:52.779Z,26.60
2022-08-19T06:02:20.503Z,26.50
2022-08-19T06:04:47.325Z,27.08
2022-08-19T06:07:14.039Z,27.17
2022-08-19T06:09:59.113Z,27.38
2022-08-19T06:12:35.880Z,25.67
2022-08-19T06:15:06.543Z,28.45
2022-08-19T06:17:35.645Z,28.10
2022-08-19T06:20:04.946Z,29.48
2022-08-19T06:22:31.668Z,29.17
2022-08-19T06:24:58.486Z,27.88
2022-08-19T06:27:25.421Z,29.15
2022-08-19T06:29:52.122Z,29.63
2022-08-19T06:32:20.042Z,29.50
2022-08-19T06:34:47.345Z,30.23
2022-08-19T06:37:14.411Z,30.65
2022-08-19T06:39:43.365Z,29.75
2022-08-19T06:42:12.936Z,30.17
2022-08-19T06:44:43.534Z,29.20
2022-08-19T06:47:23.822Z,29.15
2022-08-19T06:50:03.816Z,31.60
2022-08-19T06:52:34.812Z,30.00
2022-08-19T06:55:05.890Z,30.17
2022-08-19T06:57:34.078Z,29.85
2022-08-19T07:00:03.631Z,30.13
2022-08-19T07:02:30.352Z,30.92
2022-08-19T07:04:59.063Z,27.15
2022-08-19T07:07:29.122Z,29.02
2022-08-19T07:09:59.996Z,29.40
2022-08-19T07:12:33.725Z,28.73
2022-08-19T07:15:04.210Z,29.10
2022-08-19T07:17:31.024Z,29.02
2022-08-19T07:19:57.850Z,30.05
2022-08-19T07:22:32.587Z,30.35
2022-08-19T07:24:59.281Z,29.38
2022-08-19T07:27:26.247Z,30.50
2022-08-19T07:29:54.471Z,29.50
2022-08-19T07:32:23.438Z,29.23
2022-08-19T07:34:50.183Z,29.08
2022-08-19T07:37:17.233Z,28.15
2022-08-19T07:39:45.221Z,28.90
2022-08-19T07:42:13.332Z,30.45
2022-08-19T07:44:47.838Z,31.42
2022-08-19T07:47:47.447Z,30.02
2022-08-19T07:50:08.224Z,28.85
2022-08-19T07:52:35.624Z,27.90
2022-08-19T07:55:04.772Z,28.45
2022-08-19T07:57:31.630Z,25.13
2022-08-19T07:59:58.359Z,25.05
2022-08-19T08:02:25.062Z,20.40
2022-08-19T08:05:10.648Z,20.75
2022-08-19T08:07:56.117Z,19.33
2022-08-19T08:10:24.146Z,17.83
2022-08-19T08:13:08.785Z,17.10
2022-08-19T08:15:42.554Z,16.08
2022-08-19T08:18:10.787Z,15.15
2022-08-19T08:20:37.629Z,15.02
2022-08-19T08:23:22.999Z,15.55
2022-08-19T08:25:50.435Z,16.17
2022-08-19T08:28:18.397Z,17.15
2022-08-19T08:30:48.233Z,14.43
2022-08-19T08:33:28.529Z,14.38
2022-08-19T08:36:08.340Z,13.18
2022-08-19T08:38:39.725Z,12.70
2022-08-19T08:41:20.414Z,12.93
2022-08-19T08:43:51.941Z,13.73
2022-08-19T08:46:31.599Z,13.03
2022-08-19T08:49:21.377Z,11.75
2022-08-19T08:51:59.987Z,11.18
2022-08-19T08:54:55.260Z,11.27
2022-08-19T08:57:37.669Z,10.75
2022-08-19T09:00:17.174Z,8.95
2022-08-19T09:02:45.312Z,9.00
2022-08-19T09:05:22.385Z,8.57
2022-08-19T09:08:22.030Z,8.35
2022-08-19T09:10:55.082Z,10.02
2022-08-19T09:13:34.757Z,9.52
2022-08-19T09:16:12.313Z,9.93
2022-08-19T09:18:46.865Z,10.55
2022-08-19T09:21:14.942Z,10.07
2022-08-19T09:23:42.067Z,11.90
2022-08-19T09:26:16.425Z,11.73
2022-08-19T09:28:48.288Z,13.45
2022-08-19T09:31:18.979Z,13.27
2022-08-19T09:33:46.220Z,13.88
2022-08-19T09:36:34.858Z,14.40
2022-08-19T09:39:02.214Z,14.38
2022-08-19T09:41:30.976Z,14.00
2022-08-19T09:43:59.512Z,15.15
2022-08-19T09:46:29.854Z,13.90
2022-08-19T09:49:03.071Z,13.52
2022-08-19T09:51:33.955Z,16.75
2022-08-19T09:54:04.791Z,14.18
2022-08-19T09:56:35.215Z,14.38
2022-08-19T09:59:04.627Z,14.88
2022-08-19T10:01:32.844Z,15.35
2022-08-19T10:04:01.071Z,15.50
2022-08-19T10:06:45.784Z,13.90
2022-08-19T10:09:15.059Z,15.40
2022-08-19T10:11:51.228Z,14.48
2022-08-19T10:14:23.286Z,13.98
2022-08-19T10:16:51.887Z,14.25
2022-08-19T10:19:25.587Z,14.07
2022-08-19T10:21:54.410Z,13.38
2022-08-19T10:24:28.416Z,14.02
2022-08-19T10:26:57.255Z,12.77
2022-08-19T10:29:31.835Z,13.30
2022-08-19T10:32:09.448Z,12.52
2022-08-19T10:34:37.794Z,12.07
2022-08-19T10:37:28.952Z,10.82
2022-08-19T10:39:58.189Z,11.48
2022-08-19T10:42:25.006Z,11.32
2022-08-19T10:44:52.196Z,12.10
2022-08-19T10:47:25.883Z,9.77
2022-08-19T10:50:12.919Z,10.77
2022-08-19T10:52:50.134Z,9.43
2022-08-19T10:55:41.154Z,9.27
2022-08-19T10:58:17.869Z,10.82
2022-08-19T11:00:51.684Z,10.40
2022-08-19T11:03:21.113Z,10.10
2022-08-19T11:05:49.748Z,8.82
2022-08-19T11:08:23.115Z,10.13
2022-08-19T11:10:54.395Z,9.07
2022-08-19T11:13:21.092Z,8.77
2022-08-19T11:15:48.258Z,9.93
2022-08-19T11:18:15.033Z,8.45
2022-08-19T11:20:42.249Z,7.90
2022-08-19T11:23:08.994Z,7.82
2022-08-19T11:25:36.204Z,7.40
2022-08-19T11:28:03.158Z,7.78
2022-08-19T11:30:31.873Z,6.90
2022-08-19T11:32:58.601Z,7.38
2022-08-19T11:35:25.262Z,8.02
2022-08-19T11:37:52.049Z,7.03
2022-08-19T11:40:19.075Z,7.72
2022-08-19T11:42:57.908Z,6.53
2022-08-19T11:45:26.498Z,5.82
2022-08-19T11:47:54.180Z,6.70
2022-08-19T11:50:21.646Z,5.75
2022-08-19T11:52:50.496Z,5.55
2022-08-19T11:55:17.300Z,4.65
2022-08-19T11:57:44.509Z,4.53
2022-08-19T12:00:15.153Z,5.32
2022-08-19T12:02:41.997Z,4.78
2022-08-19T12:05:12.194Z,5.32
2022-08-19T12:07:40.550Z,5.38
2022-08-19T12:10:07.546Z,4.80
2022-08-19T12:12:35.685Z,3.83
2022-08-19T12:15:03.190Z,4.47
2022-08-19T12:17:31.751Z,4.05
2022-08-19T12:19:58.624Z,4.38
2022-08-19T12:22:25.352Z,3.80
2022-08-19T12:24:54.140Z,3.22
2022-08-19T12:27:32.315Z,5.13
2022-08-19T12:30:10.184Z,4.15
2022-08-19T12:32:36.909Z,3.67
2022-08-19T12:35:09.029Z,3.53
2022-08-19T12:37:35.902Z,3.63
2022-08-19T12:40:04.138Z,3.30
2022-08-19T12:42:31.368Z,3.45
2022-08-19T12:44:58.133Z,3.40
2022-08-19T12:47:26.910Z,3.47
2022-08-19T12:50:06.910Z,2.63
2022-08-19T12:52:33.800Z,3.20
2022-08-19T12:55:02.955Z,4.35
2022-08-19T12:57:31.965Z,2.92
2022-08-19T13:00:01.810Z,3.17
2022-08-19T13:02:33.048Z,2.65
2022-08-19T13:05:12.775Z,3.20
2022-08-19T13:07:40.453Z,2.92
2022-08-19T13:10:12.731Z,4.03
2022-08-19T13:12:40.170Z,3.42
2022-08-19T13:15:10.891Z,3.50
2022-08-19T13:17:39.843Z,3.50
2022-08-19T13:20:09.303Z,2.97
2022-08-19T13:22:38.312Z,3.00
2022-08-19T13:25:06.688Z,3.08
2022-08-19T13:27:33.630Z,3.50
2022-08-19T13:30:27.584Z,3.85
2022-08-19T13:33:17.025Z,3.30
2022-08-19T13:35:53.867Z,2.72
2022-08-19T13:38:22.169Z,3.33
2022-08-19T13:40:51.248Z,3.03
2022-08-19T13:43:23.823Z,2.33
2022-08-19T13:46:01.341Z,2.90
2022-08-19T13:48:28.199Z,2.75
2022-08-19T13:50:57.420Z,2.20
2022-08-19T13:53:26.193Z,3.17
2022-08-19T13:55:54.452Z,2.60
2022-08-19T13:58:26.287Z,2.35
2022-08-19T14:03:26.418Z,2.47
2022-08-19T14:05:53.197Z,2.53
2022-08-19T14:08:24.426Z,3.65
2022-08-19T14:10:51.228Z,3.03
2022-08-19T14:13:25.685Z,3.22
2022-08-19T14:15:55.468Z,3.38
2022-08-19T14:18:22.413Z,3.35
2022-08-19T14:20:53.563Z,3.63
2022-08-19T14:23:20.927Z,3.78
2022-08-19T14:25:47.781Z,3.90
2022-08-19T14:28:14.577Z,3.55
2022-08-19T14:30:41.349Z,3.25
2022-08-19T14:33:09.350Z,3.13
2022-08-19T14:35:36.780Z,2.60
2022-08-19T14:38:15.364Z,2.80
2022-08-19T14:40:42.954Z,2.10
2022-08-19T14:43:11.252Z,1.90
2022-08-19T14:45:40.843Z,1.80
2022-08-19T14:48:18.919Z,1.70
2022-08-19T14:50:46.378Z,2.08
2022-08-19T14:53:13.285Z,1.90
2022-08-19T14:55:47.636Z,2.45
2022-08-19T14:58:29.087Z,2.10
2022-08-19T15:00:59.979Z,1.70
2022-08-19T15:03:26.901Z,1.98
2022-08-19T15:05:53.760Z,1.77
2022-08-19T15:08:24.402Z,1.70
2022-08-19T15:10:51.666Z,2.00
2022-08-19T15:13:18.671Z,1.88
2022-08-19T15:15:46.299Z,1.92
2022-08-19T15:18:13.911Z,1.80
2022-08-19T15:20:42.220Z,1.80
2022-08-19T15:23:09.153Z,1.63
2022-08-19T15:25:36.544Z,1.88
2022-08-19T15:28:04.215Z,2.03
2022-08-19T15:30:31.216Z,2.17
2022-08-19T15:32:59.008Z,2.13
2022-08-19T15:35:26.284Z,2.08
2022-08-19T15:37:54.254Z,2.15
2022-08-19T15:40:22.860Z,1.67
2022-08-19T15:42:50.593Z,1.70
2022-08-19T15:45:19.609Z,1.65
2022-08-19T15:47:46.707Z,1.60
2022-08-19T15:50:18.265Z,1.67
2022-08-19T15:52:53.875Z,1.52
2022-08-19T15:55:33.391Z,1.50
2022-08-19T15:58:27.885Z,2.13
2022-08-19T16:01:26.999Z,2.20
2022-08-19T16:04:14.687Z,1.73
2022-08-19T16:06:49.250Z,1.50
2022-08-19T16:09:17.407Z,2.15
2022-08-19T16:11:46.199Z,1.73
2022-08-19T16:14:18.481Z,1.52
2022-08-19T16:16:47.122Z,1.67
2022-08-19T16:19:16.585Z,1.88
2022-08-19T16:21:49.593Z,1.95
2022-08-19T16:24:19.425Z,2.22
2022-08-19T16:26:50.207Z,2.00
2022-08-19T16:29:27.646Z,2.10
2022-08-19T16:32:03.641Z,2.15
2022-08-19T16:34:30.885Z,1.92
2022-08-19T16:36:58.029Z,1.67
2022-08-19T16:39:24.745Z,1.88
2022-08-19T16:41:51.706Z,1.92
2022-08-19T16:44:20.598Z,1.90
2022-08-19T16:46:54.807Z,1.73
2022-08-19T16:49:53.589Z,2.03
2022-08-19T16:52:16.988Z,2.00
2022-08-19T16:54:44.615Z,1.85
2022-08-19T16:57:12.776Z,1.67
2022-08-19T16:59:48.134Z,1.73
2022-08-19T17:02:22.409Z,2.03
2022-08-19T17:04:57.612Z,1.98
2022-08-19T17:07:28.585Z,2.45
2022-08-19T17:09:56.433Z,1.70
2022-08-19T17:12:31.665Z,2.20
2022-08-19T17:15:00.617Z,2.30
2022-08-19T17:17:29.294Z,2.00
2022-08-19T17:19:56.990Z,2.20
2022-08-19T17:22:23.981Z,2.17
2022-08-19T17:24:50.635Z,2.40
2022-08-19T17:27:19.578Z,2.10
2022-08-19T17:29:47.132Z,2.47
2022-08-19T17:32:15.248Z,2.33
2022-08-19T17:34:41.990Z,1.83
2022-08-19T17:37:08.750Z,2.00
2022-08-19T17:39:39.573Z,1.95
2022-08-19T17:42:08.228Z,2.22
2022-08-19T17:44:36.534Z,1.98
2022-08-19T17:47:04.211Z,1.80
2022-08-19T17:49:33.268Z,2.30
2022-08-19T17:52:06.158Z,1.95
2022-08-19T17:54:38.449Z,2.13
2022-08-19T17:57:08.360Z,2.22
2022-08-19T17:59:37.279Z,2.17
2022-08-19T18:02:06.988Z,2.60
2022-08-19T18:04:38.197Z,2.60
2022-08-19T18:07:08.196Z,2.35
2022-08-19T18:09:41.475Z,2.97
2022-08-19T18:12:13.878Z,2.40
2022-08-19T18:14:45.267Z,2.00
2022-08-19T18:17:20.852Z,2.10
2022-08-19T18:19:50.038Z,2.28
2022-08-19T18:22:27.624Z,2.20
2022-08-19T18:24:59.883Z,1.77
2022-08-19T18:27:29.266Z,1.60
2022-08-19T18:30:00.922Z,1.77
2022-08-19T18:32:33.774Z,1.42
2022-08-19T18:35:02.244Z,1.85
2022-08-19T18:37:29.436Z,1.40
2022-08-19T18:40:15.029Z,1.70
2022-08-19T18:43:02.297Z,2.00
2022-08-19T18:45:48.529Z,1.65
2022-08-19T18:48:39.041Z,1.50
2022-08-19T18:51:10.184Z,1.30
2022-08-19T18:53:44.236Z,1.77
2022-08-19T18:56:14.028Z,1.30
2022-08-19T18:58:47.830Z,1.50
2022-08-19T19:01:18.730Z,1.80
2022-08-19T19:03:53.096Z,1.52
2022-08-19T19:06:24.450Z,1.60
2022-08-19T19:08:52.715Z,1.50
2022-08-19T19:11:29.690Z,1.42
2022-08-19T19:13:59.323Z,1.48
2022-08-19T19:16:29.244Z,1.95
2022-08-19T19:19:00.732Z,1.73
2022-08-19T19:21:30.856Z,1.60
2022-08-19T19:24:03.293Z,1.90
2022-08-19T19:26:32.470Z,1.58
2022-08-19T19:28:59.703Z,1.30
2022-08-19T19:31:29.157Z,1.80
2022-08-19T19:34:02.276Z,1.48
2022-08-19T19:36:31.798Z,1.73
2022-08-19T19:39:02.774Z,1.42
2022-08-19T19:44:32.457Z,1.27
2022-08-19T19:47:01.482Z,1.20
2022-08-19T19:49:33.476Z,1.17
2022-08-19T19:52:03.076Z,1.10
2022-08-19T19:54:29.793Z,1.30
2022-08-19T19:56:56.474Z,1.25
2022-08-19T19:59:25.502Z,1.27
2022-08-19T20:01:55.139Z,1.60
2022-08-19T20:06:55.682Z,1.70
2022-08-19T20:09:22.377Z,1.80
2022-08-19T20:11:53.588Z,1.80
2022-08-19T20:14:35.692Z,1.73
2022-08-19T20:17:03.100Z,1.52
2022-08-19T20:19:53.811Z,1.70
2022-08-19T20:22:23.274Z,1.75
2022-08-19T20:24:54.725Z,1.70
2022-08-19T20:27:25.082Z,1.77
2022-08-19T20:29:53.228Z,1.85
2022-08-19T20:32:20.093Z,1.65
2022-08-19T20:34:49.715Z,1.80
2022-08-19T20:37:18.302Z,1.58
2022-08-19T20:39:44.981Z,1.77
2022-08-19T20:42:14.461Z,1.98
2022-08-19T20:44:43.753Z,1.90
2022-08-19T20:47:10.466Z,1.77
2022-08-19T20:49:37.163Z,2.10
2022-08-19T20:52:07.903Z,1.63
2022-08-19T20:54:42.040Z,1.80
2022-08-19T20:57:11.508Z,1.65
2022-08-19T20:59:45.976Z,1.70
2022-08-19T21:02:14.766Z,2.05
2022-08-19T21:04:41.497Z,1.63
2022-08-19T21:07:08.802Z,2.60
2022-08-19T21:09:40.135Z,2.92
2022-08-19T21:12:12.682Z,2.60
2022-08-19T21:14:42.714Z,2.03
2022-08-19T21:17:09.675Z,2.40
2022-08-19T21:19:39.750Z,2.10
2022-08-19T21:22:06.796Z,2.63
2022-08-19T21:24:36.197Z,2.38
2022-08-19T21:27:03.275Z,3.15
2022-08-19T21:29:35.939Z,3.13
2022-08-19T21:32:04.983Z,2.53
2022-08-19T21:34:31.744Z,2.75
2022-08-19T21:36:58.492Z,2.92
2022-08-19T21:39:25.329Z,3.10
2022-08-19T21:41:54.581Z,3.17
2022-08-19T21:44:26.486Z,2.78
2022-08-19T21:46:55.982Z,2.42
2022-08-19T21:49:25.187Z,2.78
2022-08-19T21:51:58.127Z,2.55
2022-08-19T21:54:25.092Z,2.90
2022-08-19T21:56:53.981Z,3.15
2022-08-19T21:59:21.919Z,2.80
2022-08-19T22:01:52.055Z,2.72
2022-08-19T22:04:28.012Z,3.80
2022-08-19T22:06:54.668Z,3.05
2022-08-19T22:09:21.363Z,2.78
2022-08-19T22:11:49.011Z,3.10
2022-08-19T22:14:15.678Z,3.25
2022-08-19T22:16:43.033Z,4.10
2022-08-19T22:19:11.051Z,3.40
2022-08-19T22:21:41.201Z,3.10
2022-08-19T22:24:08.613Z,3.30
2022-08-19T22:26:37.581Z,3.63
2022-08-19T22:29:04.325Z,3.80
2022-08-19T22:31:33.719Z,3.67
2022-08-19T22:34:01.748Z,3.45
2022-08-19T22:36:28.430Z,3.58
2022-08-19T22:38:56.330Z,4.35
2022-08-19T22:41:25.373Z,3.40
2022-08-19T22:43:54.773Z,4.30
2022-08-19T22:46:21.506Z,3.55
2022-08-19T22:48:49.485Z,3.65
2022-08-19T22:51:46.322Z,4.00
2022-08-19T22:54:13.101Z,3.97
2022-08-19T22:56:39.801Z,3.78
2022-08-19T22:59:09.734Z,3.92
2022-08-19T23:01:36.951Z,4.82
2022-08-19T23:04:05.422Z,4.05
2022-08-19T23:06:33.849Z,3.55
2022-08-19T23:09:08.220Z,5.65
2022-08-19T23:11:42.984Z,4.25
2022-08-19T23:14:13.686Z,4.53
2022-08-19T23:16:47.865Z,4.45
2022-08-19T23:19:17.417Z,3.97
2022-08-19T23:21:44.177Z,4.18
2022-08-19T23:24:11.326Z,4.20
2022-08-19T23:26:38.527Z,3.92
2022-08-19T23:29:24.371Z,4.38
2022-08-19T23:31:53.650Z,4.70
2022-08-19T23:34:20.359Z,4.93
2022-08-19T23:36:47.039Z,4.30
2022-08-19T23:39:19.634Z,4.70
2022-08-19T23:41:46.377Z,4.50
2022-08-19T23:44:15.137Z,4.13
2022-08-19T23:46:55.389Z,5.18
2022-08-19T23:49:23.262Z,4.68
2022-08-19T23:51:50.001Z,4.38
2022-08-19T23:54:16.673Z,4.43
2022-08-19T23:56:43.390Z,4.68
2022-08-19T23:59:14.010Z,4.75
